Sawyer County Airport
KHYR : now visible

Airfield :











YOU CAN JOIN US ON...

 
LOGIN :

Register | Disclaimer

   EN    FR    IT 

 









Legend :    VFR   Marginal VFR   IFR   Intensive IFR   Very Intensive IFR
Visi :
Ceiling :
>= 8 km
>= 3000ft
5 to 8 km
1000 to 3000 ft
1500m to 5 km
500 to 1000 ft
800 to 1500m
200 to 500 ft
< 800m
< 200 ft
Symbols :   Thunderstorms  Fog  Heavy snow  Heavy precipitations  Wind > 20 kt






- Airport Elevation : 1216 ft


KHYR - Sawyer County

CURRENT METAR :
  • 081853Z AUTO 30008G18KT 270V350 10SM CLR 12/M08 A2974 RMK AO2 SLP077 T01171078

EXPIRED METARs :
  • 081753Z AUTO 10SM FEW120 12/M08 A2975 RMK AO2 SLP081 T01171078 10117 21017 50003
  • 081653Z AUTO VRB06KT 10SM CLR 12/M04 A2977 RMK AO2 SLP085 T01171044

TAF KHYR
Valid from the 08 at 18:00 until the 09 at 18:00 UTC


081731Z 0818/0918 31011G24KT P6SM SCT080
FM090400 29010G21KT P6SM BKN060



MET'MAP, your aeronautical weather chart ! - Copyright ORBIFLY December 2007 - Disclaimer

ORBIFLY MET'MAP TEAM :

Programming & Development : Alexandra Zaïnal
Concept & original design : Baudouin d'Aumeries
Assistance for programming : Marc-Olivier Méhu
Technical & hardware support : Manuel Goepfert

Contact : metmap@orbifly.com




SOURCES & CREDITS :

   NOAA       Earth
Advisory